EFW568X EGKK-LPPT
Flight info
| Callsign | EFW568X |
|---|---|
| Flight time | 2h 30m |
| Altitude | 37000 |
| Route | IMVUR N63 SAM M195 LORKU DCT BALDA DCT ABUPI DCT XAMAX |
| Aircraft | A320/M-SDE3FGHIRWY/LB1 |
Departure
| Time | 2026-05-05 17:09 |
|---|---|
| Airport | London Gatwick Airport (EGKK) |
Arrival
| Time | 2026-05-05 19:39 |
|---|---|
| Airport | Lisbon Humberto Delgado Airport (LPPT) |
| Time | Latitude | Longitude | Altitude | Speed | Heading |
|---|---|---|---|---|---|
| 2026-05-05 16:46 | 51.15482 | -0.17028 | 208 ft | 0 kts | 347° |
| 2026-05-05 16:56 | 51.15469 | -0.17023 | 220 ft | 4 kts | 344° |
| 2026-05-05 16:56 | 51.15444 | -0.17008 | 216 ft | 4 kts | 326° |
| 2026-05-05 16:57 | 51.15428 | -0.16980 | 212 ft | 4 kts | 270° |
| 2026-05-05 16:57 | 51.15428 | -0.16970 | 210 ft | 0 kts | 257° |
| 2026-05-05 17:00 | 51.15424 | -0.16997 | 214 ft | 6 kts | 257° |
| 2026-05-05 17:00 | 51.15412 | -0.17084 | 214 ft | 10 kts | 258° |
| 2026-05-05 17:00 | 51.15381 | -0.17219 | 217 ft | 15 kts | 253° |
| 2026-05-05 17:01 | 51.15332 | -0.17364 | 212 ft | 16 kts | 207° |
| 2026-05-05 17:01 | 51.15290 | -0.17522 | 209 ft | 17 kts | 258° |
| 2026-05-05 17:01 | 51.15262 | -0.17718 | 214 ft | 19 kts | 258° |
| 2026-05-05 17:01 | 51.15233 | -0.17933 | 211 ft | 21 kts | 259° |
| 2026-05-05 17:02 | 51.15200 | -0.18177 | 219 ft | 24 kts | 257° |
| 2026-05-05 17:02 | 51.15170 | -0.18436 | 217 ft | 23 kts | 258° |
| 2026-05-05 17:02 | 51.15137 | -0.18676 | 212 ft | 23 kts | 257° |
| 2026-05-05 17:02 | 51.15101 | -0.18940 | 217 ft | 25 kts | 257° |
| 2026-05-05 17:03 | 51.15065 | -0.19201 | 209 ft | 20 kts | 258° |
| 2026-05-05 17:03 | 51.14986 | -0.19268 | 214 ft | 13 kts | 195° |
| 2026-05-05 17:03 | 51.14947 | -0.19393 | 213 ft | 14 kts | 257° |
| 2026-05-05 17:03 | 51.14923 | -0.19567 | 214 ft | 20 kts | 257° |
| 2026-05-05 17:04 | 51.14890 | -0.19822 | 212 ft | 26 kts | 257° |
| 2026-05-05 17:04 | 51.14847 | -0.20115 | 209 ft | 29 kts | 258° |
| 2026-05-05 17:04 | 51.14803 | -0.20441 | 213 ft | 31 kts | 257° |
| 2026-05-05 17:04 | 51.14755 | -0.20780 | 218 ft | 33 kts | 257° |
| 2026-05-05 17:05 | 51.14710 | -0.21106 | 213 ft | 23 kts | 257° |
| 2026-05-05 17:05 | 51.14696 | -0.21210 | 217 ft | 0 kts | 258° |
| 2026-05-05 17:05 | 51.14694 | -0.21225 | 214 ft | 5 kts | 258° |
| 2026-05-05 17:05 | 51.14681 | -0.21322 | 215 ft | 12 kts | 256° |
| 2026-05-05 17:06 | 51.14627 | -0.21332 | 213 ft | 8 kts | 164° |
| 2026-05-05 17:06 | 51.14618 | -0.21328 | 211 ft | 0 kts | 165° |
| 2026-05-05 17:07 | 51.14618 | -0.21327 | 211 ft | 1 kts | 165° |
| 2026-05-05 17:07 | 51.14591 | -0.21317 | 213 ft | 9 kts | 165° |
| 2026-05-05 17:07 | 51.14544 | -0.21276 | 213 ft | 15 kts | 137° |
| 2026-05-05 17:07 | 51.14526 | -0.21118 | 219 ft | 0 kts | 77° |
| 2026-05-05 17:08 | 51.14531 | -0.21083 | 213 ft | 21 kts | 77° |
| 2026-05-05 17:09 | 51.14617 | -0.20459 | 213 ft | 91 kts | 78° |
| 2026-05-05 17:09 | 51.14794 | -0.19184 | 214 ft | 143 kts | 77° |
| 2026-05-05 17:09 | 51.15024 | -0.17577 | 539 ft | 157 kts | 77° |
| 2026-05-05 17:09 | 51.15275 | -0.15840 | 1175 ft | 160 kts | 77° |
| 2026-05-05 17:10 | 51.15516 | -0.14072 | 1709 ft | 170 kts | 77° |
| 2026-05-05 17:10 | 51.15780 | -0.12106 | 1987 ft | 192 kts | 77° |
| 2026-05-05 17:10 | 51.16079 | -0.09905 | 2322 ft | 213 kts | 76° |
| 2026-05-05 17:10 | 51.16411 | -0.07548 | 2873 ft | 224 kts | 73° |
| 2026-05-05 17:11 | 51.17207 | -0.05416 | 3009 ft | 224 kts | 36° |
| 2026-05-05 17:11 | 51.18648 | -0.04651 | 3012 ft | 222 kts | 358° |
| 2026-05-05 17:11 | 51.20189 | -0.05007 | 3009 ft | 224 kts | 348° |
| 2026-05-05 17:11 | 51.21630 | -0.05847 | 3005 ft | 225 kts | 324° |
| 2026-05-05 17:12 | 51.22584 | -0.07827 | 3008 ft | 232 kts | 291° |
| 2026-05-05 17:12 | 51.22728 | -0.10549 | 3013 ft | 259 kts | 263° |
| 2026-05-05 17:12 | 51.22427 | -0.13425 | 3005 ft | 264 kts | 261° |
| 2026-05-05 17:12 | 51.22084 | -0.16320 | 3006 ft | 265 kts | 260° |
| 2026-05-05 17:13 | 51.21736 | -0.19175 | 3032 ft | 267 kts | 260° |
| 2026-05-05 17:13 | 51.21383 | -0.22099 | 3912 ft | 268 kts | 260° |
| 2026-05-05 17:13 | 51.21033 | -0.25018 | 4938 ft | 269 kts | 260° |
| 2026-05-05 17:13 | 51.20681 | -0.27973 | 5912 ft | 271 kts | 260° |
| 2026-05-05 17:14 | 51.20332 | -0.30949 | 6810 ft | 275 kts | 260° |
| 2026-05-05 17:14 | 51.19980 | -0.33963 | 7694 ft | 278 kts | 259° |
| 2026-05-05 17:14 | 51.19612 | -0.36984 | 8563 ft | 281 kts | 258° |
| 2026-05-05 17:14 | 51.19215 | -0.40047 | 9438 ft | 284 kts | 257° |
| 2026-05-05 17:15 | 51.18802 | -0.43146 | 10245 ft | 287 kts | 257° |
| 2026-05-05 17:15 | 51.18384 | -0.46290 | 11003 ft | 291 kts | 257° |
| 2026-05-05 17:15 | 51.17968 | -0.49463 | 11744 ft | 295 kts | 258° |
| 2026-05-05 17:15 | 51.17533 | -0.52691 | 12501 ft | 299 kts | 254° |
| 2026-05-05 17:16 | 51.16810 | -0.55867 | 12893 ft | 316 kts | 247° |
| 2026-05-05 17:16 | 51.15944 | -0.59153 | 13085 ft | 337 kts | 246° |
| 2026-05-05 17:16 | 51.14996 | -0.62659 | 13623 ft | 346 kts | 246° |
| 2026-05-05 17:16 | 51.14034 | -0.66207 | 14248 ft | 351 kts | 246° |
| 2026-05-05 17:17 | 51.13065 | -0.69794 | 14895 ft | 354 kts | 246° |
| 2026-05-05 17:17 | 51.12089 | -0.73421 | 15534 ft | 357 kts | 246° |
| 2026-05-05 17:17 | 51.11119 | -0.77032 | 16151 ft | 360 kts | 246° |
| 2026-05-05 17:17 | 51.10129 | -0.80720 | 16771 ft | 364 kts | 246° |
| 2026-05-05 17:18 | 51.09131 | -0.84437 | 17416 ft | 367 kts | 246° |
| 2026-05-05 17:18 | 51.08120 | -0.88195 | 18054 ft | 370 kts | 246° |
| 2026-05-05 17:18 | 51.07095 | -0.91982 | 18637 ft | 374 kts | 246° |
| 2026-05-05 17:18 | 51.06067 | -0.95793 | 19243 ft | 376 kts | 246° |
| 2026-05-05 17:19 | 51.05033 | -0.99630 | 19863 ft | 378 kts | 246° |
| 2026-05-05 17:19 | 51.03993 | -1.03482 | 20487 ft | 380 kts | 246° |
| 2026-05-05 17:19 | 51.02959 | -1.07306 | 21072 ft | 383 kts | 246° |
| 2026-05-05 17:19 | 51.01898 | -1.11220 | 21648 ft | 386 kts | 245° |
| 2026-05-05 17:20 | 51.00830 | -1.15140 | 22229 ft | 388 kts | 245° |
| 2026-05-05 17:20 | 50.99750 | -1.19086 | 22813 ft | 390 kts | 245° |
| 2026-05-05 17:20 | 50.98659 | -1.23057 | 23394 ft | 393 kts | 245° |
| 2026-05-05 17:20 | 50.97557 | -1.27049 | 23881 ft | 395 kts | 243° |
| 2026-05-05 17:21 | 50.96100 | -1.30708 | 24329 ft | 394 kts | 227° |
| 2026-05-05 17:21 | 50.94032 | -1.33546 | 24785 ft | 395 kts | 213° |
| 2026-05-05 17:21 | 50.91745 | -1.35992 | 25245 ft | 396 kts | 213° |
| 2026-05-05 17:22 | 50.87164 | -1.40818 | 26135 ft | 400 kts | 212° |
| 2026-05-05 17:22 | 50.84837 | -1.43261 | 26567 ft | 401 kts | 212° |
| 2026-05-05 17:22 | 50.82500 | -1.45715 | 26989 ft | 403 kts | 212° |
| 2026-05-05 17:22 | 50.80159 | -1.48176 | 27410 ft | 405 kts | 212° |
| 2026-05-05 17:23 | 50.77808 | -1.50655 | 27835 ft | 406 kts | 212° |
| 2026-05-05 17:23 | 50.75444 | -1.53149 | 28278 ft | 408 kts | 212° |
| 2026-05-05 17:23 | 50.73077 | -1.55641 | 28687 ft | 410 kts | 212° |
| 2026-05-05 17:23 | 50.70698 | -1.58133 | 29091 ft | 411 kts | 212° |
| 2026-05-05 17:24 | 50.68305 | -1.60632 | 29490 ft | 413 kts | 212° |
| 2026-05-05 17:24 | 50.65901 | -1.63141 | 29880 ft | 415 kts | 212° |
| 2026-05-05 17:24 | 50.63488 | -1.65662 | 30220 ft | 417 kts | 212° |
| 2026-05-05 17:24 | 50.61093 | -1.68164 | 30512 ft | 420 kts | 212° |
| 2026-05-05 17:25 | 50.58649 | -1.70712 | 30797 ft | 423 kts | 212° |
| 2026-05-05 17:25 | 50.56988 | -1.72443 | 30977 ft | 425 kts | 212° |
| 2026-05-05 17:25 | 50.53707 | -1.75859 | 31328 ft | 429 kts | 212° |
| 2026-05-05 17:25 | 50.51204 | -1.78454 | 31585 ft | 432 kts | 212° |
| 2026-05-05 17:26 | 50.48707 | -1.81041 | 31890 ft | 433 kts | 212° |
| 2026-05-05 17:26 | 50.46191 | -1.83644 | 32262 ft | 433 kts | 212° |
| 2026-05-05 17:26 | 50.43673 | -1.86247 | 32617 ft | 434 kts | 212° |
| 2026-05-05 17:26 | 50.41150 | -1.88855 | 32979 ft | 434 kts | 212° |
| 2026-05-05 17:27 | 50.38622 | -1.91461 | 33327 ft | 435 kts | 212° |
| 2026-05-05 17:27 | 50.36091 | -1.94069 | 33688 ft | 436 kts | 212° |
| 2026-05-05 17:27 | 50.33555 | -1.96677 | 34028 ft | 436 kts | 212° |
| 2026-05-05 17:27 | 50.31042 | -1.99256 | 34334 ft | 437 kts | 212° |
| 2026-05-05 17:28 | 50.28498 | -2.01863 | 34647 ft | 437 kts | 212° |
| 2026-05-05 17:28 | 50.25953 | -2.04468 | 34947 ft | 438 kts | 212° |
| 2026-05-05 17:28 | 50.23403 | -2.07076 | 35238 ft | 438 kts | 212° |
| 2026-05-05 17:28 | 50.20844 | -2.09692 | 35527 ft | 439 kts | 212° |
| 2026-05-05 17:29 | 50.18287 | -2.12302 | 35815 ft | 439 kts | 212° |
| 2026-05-05 17:29 | 50.15726 | -2.14915 | 36087 ft | 439 kts | 212° |
| 2026-05-05 17:29 | 50.13186 | -2.17503 | 36360 ft | 440 kts | 212° |
| 2026-05-05 17:29 | 50.10617 | -2.20120 | 36628 ft | 440 kts | 212° |
| 2026-05-05 17:30 | 50.08052 | -2.22728 | 36867 ft | 441 kts | 212° |
| 2026-05-05 17:30 | 50.02910 | -2.27936 | 36947 ft | 440 kts | 212° |
| 2026-05-05 17:31 | 49.97774 | -2.33120 | 36954 ft | 439 kts | 212° |
| 2026-05-05 17:31 | 49.92558 | -2.37955 | 36959 ft | 439 kts | 203° |
| 2026-05-05 17:32 | 49.86948 | -2.41694 | 36964 ft | 439 kts | 202° |
| 2026-05-05 17:32 | 49.81327 | -2.45422 | 36971 ft | 439 kts | 202° |
| 2026-05-05 17:33 | 49.75706 | -2.49148 | 36975 ft | 439 kts | 202° |
| 2026-05-05 17:33 | 49.70088 | -2.52864 | 36972 ft | 439 kts | 202° |
| 2026-05-05 17:34 | 49.64491 | -2.56553 | 36976 ft | 439 kts | 202° |
| 2026-05-05 17:34 | 49.58858 | -2.60264 | 36980 ft | 439 kts | 202° |
| 2026-05-05 17:35 | 49.53234 | -2.63949 | 36987 ft | 439 kts | 202° |
| 2026-05-05 17:35 | 49.47629 | -2.67609 | 36989 ft | 439 kts | 202° |
| 2026-05-05 17:36 | 49.41994 | -2.71285 | 36991 ft | 440 kts | 202° |
| 2026-05-05 17:36 | 49.36348 | -2.74953 | 36988 ft | 440 kts | 202° |
| 2026-05-05 17:37 | 49.30711 | -2.78616 | 36979 ft | 440 kts | 202° |
| 2026-05-05 17:37 | 49.25102 | -2.82252 | 36983 ft | 440 kts | 202° |
| 2026-05-05 17:38 | 49.19450 | -2.85897 | 36976 ft | 440 kts | 202° |
| 2026-05-05 17:38 | 49.13794 | -2.89540 | 36977 ft | 441 kts | 202° |
| 2026-05-05 17:39 | 49.08176 | -2.93163 | 36977 ft | 441 kts | 202° |
| 2026-05-05 17:39 | 49.02511 | -2.96801 | 36992 ft | 442 kts | 202° |
| 2026-05-05 17:40 | 48.96832 | -3.00441 | 36962 ft | 443 kts | 202° |
| 2026-05-05 17:40 | 48.91127 | -3.04076 | 36957 ft | 445 kts | 202° |
| 2026-05-05 17:41 | 48.85411 | -3.07711 | 36959 ft | 446 kts | 202° |
| 2026-05-05 17:41 | 48.79717 | -3.11323 | 36968 ft | 446 kts | 202° |
| 2026-05-05 17:42 | 48.73977 | -3.14956 | 36977 ft | 447 kts | 202° |
| 2026-05-05 17:42 | 48.68238 | -3.18590 | 36978 ft | 447 kts | 202° |
| 2026-05-05 17:43 | 48.62488 | -3.22218 | 36981 ft | 448 kts | 202° |
| 2026-05-05 17:43 | 48.56738 | -3.25837 | 36981 ft | 448 kts | 202° |
| 2026-05-05 17:44 | 48.50976 | -3.29454 | 36980 ft | 448 kts | 202° |
| 2026-05-05 17:44 | 48.45210 | -3.33058 | 36986 ft | 448 kts | 202° |
| 2026-05-05 17:45 | 48.39474 | -3.36636 | 36991 ft | 448 kts | 202° |
| 2026-05-05 17:45 | 48.33705 | -3.40229 | 36985 ft | 449 kts | 202° |
| 2026-05-05 17:46 | 48.27943 | -3.43812 | 36988 ft | 449 kts | 202° |
| 2026-05-05 17:46 | 48.22162 | -3.47394 | 36980 ft | 449 kts | 202° |
| 2026-05-05 17:47 | 48.16380 | -3.50960 | 36996 ft | 449 kts | 202° |
| 2026-05-05 17:47 | 48.10634 | -3.54507 | 36982 ft | 449 kts | 202° |
| 2026-05-05 17:48 | 48.04845 | -3.58068 | 36983 ft | 449 kts | 202° |
| 2026-05-05 17:48 | 47.99048 | -3.61624 | 36980 ft | 450 kts | 202° |
| 2026-05-05 17:49 | 47.93259 | -3.65167 | 36982 ft | 450 kts | 202° |
| 2026-05-05 17:49 | 47.87480 | -3.68687 | 36995 ft | 450 kts | 202° |
| 2026-05-05 17:50 | 47.81678 | -3.72229 | 36979 ft | 450 kts | 202° |
| 2026-05-05 17:50 | 47.75873 | -3.75761 | 36979 ft | 450 kts | 202° |
| 2026-05-05 17:51 | 47.70064 | -3.79287 | 36976 ft | 451 kts | 202° |
| 2026-05-05 17:51 | 47.64282 | -3.82778 | 36973 ft | 451 kts | 202° |
| 2026-05-05 17:52 | 47.58468 | -3.86281 | 36972 ft | 451 kts | 202° |
| 2026-05-05 17:52 | 47.52645 | -3.89783 | 36974 ft | 451 kts | 202° |
| 2026-05-05 17:53 | 47.46847 | -3.93264 | 36972 ft | 452 kts | 202° |
| 2026-05-05 17:53 | 47.41017 | -3.96756 | 36973 ft | 452 kts | 202° |
| 2026-05-05 17:54 | 47.35183 | -4.00246 | 36971 ft | 452 kts | 202° |
| 2026-05-05 17:54 | 47.29344 | -4.03716 | 36970 ft | 452 kts | 202° |
| 2026-05-05 17:55 | 47.23535 | -4.07160 | 36970 ft | 452 kts | 202° |
| 2026-05-05 17:55 | 47.17685 | -4.10625 | 36969 ft | 453 kts | 202° |
| 2026-05-05 17:56 | 47.12827 | -4.13507 | 36967 ft | 453 kts | 202° |
| 2026-05-05 17:56 | 47.06984 | -4.16973 | 36973 ft | 453 kts | 202° |
| 2026-05-05 17:57 | 47.01128 | -4.20433 | 36971 ft | 453 kts | 202° |
| 2026-05-05 17:57 | 46.95266 | -4.23880 | 36965 ft | 453 kts | 202° |
| 2026-05-05 17:58 | 46.89410 | -4.27305 | 36966 ft | 453 kts | 202° |
| 2026-05-05 17:58 | 46.83582 | -4.30708 | 36963 ft | 454 kts | 202° |
| 2026-05-05 17:59 | 46.77713 | -4.34141 | 36969 ft | 454 kts | 202° |
| 2026-05-05 17:59 | 46.71849 | -4.37564 | 36971 ft | 454 kts | 202° |
| 2026-05-05 18:00 | 46.65972 | -4.40971 | 36971 ft | 454 kts | 202° |
| 2026-05-05 18:00 | 46.60091 | -4.44372 | 36972 ft | 454 kts | 202° |
| 2026-05-05 18:01 | 46.54235 | -4.47748 | 36970 ft | 454 kts | 202° |
| 2026-05-05 18:01 | 46.48355 | -4.51147 | 36979 ft | 455 kts | 202° |
| 2026-05-05 18:02 | 46.42461 | -4.54549 | 36979 ft | 455 kts | 202° |
| 2026-05-05 18:02 | 46.36608 | -4.57909 | 36980 ft | 455 kts | 202° |
| 2026-05-05 18:03 | 46.30714 | -4.61289 | 36985 ft | 455 kts | 202° |
| 2026-05-05 18:03 | 46.24823 | -4.64655 | 36981 ft | 455 kts | 202° |
| 2026-05-05 18:04 | 46.18930 | -4.68006 | 36984 ft | 455 kts | 202° |
| 2026-05-05 18:04 | 46.13033 | -4.71356 | 36990 ft | 455 kts | 202° |
| 2026-05-05 18:05 | 46.07174 | -4.74690 | 36988 ft | 455 kts | 202° |
| 2026-05-05 18:05 | 46.01269 | -4.78034 | 36992 ft | 455 kts | 202° |
| 2026-05-05 18:06 | 45.95365 | -4.81369 | 36990 ft | 455 kts | 202° |
| 2026-05-05 18:06 | 45.89452 | -4.84702 | 36990 ft | 456 kts | 202° |
| 2026-05-05 18:07 | 45.83579 | -4.88015 | 36992 ft | 456 kts | 202° |
| 2026-05-05 18:07 | 45.77667 | -4.91326 | 36993 ft | 456 kts | 202° |
| 2026-05-05 18:08 | 45.71744 | -4.94630 | 36992 ft | 456 kts | 202° |
| 2026-05-05 18:08 | 45.65828 | -4.97938 | 36996 ft | 456 kts | 202° |
| 2026-05-05 18:09 | 45.59943 | -5.01214 | 36996 ft | 456 kts | 202° |
| 2026-05-05 18:09 | 45.54012 | -5.04515 | 36999 ft | 457 kts | 202° |
| 2026-05-05 18:10 | 45.48093 | -5.07808 | 37000 ft | 457 kts | 202° |
| 2026-05-05 18:10 | 45.42165 | -5.11088 | 37001 ft | 457 kts | 202° |
| 2026-05-05 18:11 | 45.36235 | -5.14356 | 37003 ft | 457 kts | 202° |
| 2026-05-05 18:11 | 45.30334 | -5.17613 | 37006 ft | 457 kts | 202° |
| 2026-05-05 18:12 | 45.24401 | -5.20875 | 37010 ft | 457 kts | 202° |
| 2026-05-05 18:12 | 45.18459 | -5.24134 | 37015 ft | 457 kts | 202° |
| 2026-05-05 18:13 | 45.12522 | -5.27388 | 37019 ft | 457 kts | 202° |
| 2026-05-05 18:13 | 45.06593 | -5.30626 | 37010 ft | 457 kts | 202° |
| 2026-05-05 18:14 | 45.00702 | -5.33840 | 37023 ft | 457 kts | 202° |
| 2026-05-05 18:14 | 44.94761 | -5.37067 | 37018 ft | 456 kts | 202° |
| 2026-05-05 18:15 | 44.88836 | -5.40277 | 37027 ft | 456 kts | 202° |
| 2026-05-05 18:15 | 44.82902 | -5.43489 | 37024 ft | 456 kts | 202° |
| 2026-05-05 18:16 | 44.77005 | -5.46681 | 37026 ft | 456 kts | 202° |
| 2026-05-05 18:16 | 44.71078 | -5.49879 | 37025 ft | 456 kts | 202° |
| 2026-05-05 18:17 | 44.65155 | -5.53066 | 37031 ft | 455 kts | 202° |
| 2026-05-05 18:17 | 44.59239 | -5.56266 | 37026 ft | 455 kts | 204° |
| 2026-05-05 18:18 | 44.53426 | -5.59798 | 37033 ft | 454 kts | 206° |
| 2026-05-05 18:18 | 44.47713 | -5.63464 | 37030 ft | 454 kts | 206° |
| 2026-05-05 18:19 | 44.41946 | -5.67094 | 37028 ft | 454 kts | 206° |
| 2026-05-05 18:19 | 44.36160 | -5.70644 | 37027 ft | 454 kts | 205° |
| 2026-05-05 18:20 | 44.30359 | -5.74172 | 37027 ft | 454 kts | 206° |
| 2026-05-05 18:20 | 44.24615 | -5.77682 | 37033 ft | 453 kts | 206° |
| 2026-05-05 18:21 | 44.18838 | -5.81220 | 37033 ft | 453 kts | 206° |
| 2026-05-05 18:21 | 44.13054 | -5.84746 | 37037 ft | 453 kts | 206° |
| 2026-05-05 18:22 | 44.07265 | -5.88266 | 37035 ft | 453 kts | 206° |
| 2026-05-05 18:22 | 44.01513 | -5.91759 | 37034 ft | 453 kts | 206° |
| 2026-05-05 18:23 | 43.95722 | -5.95269 | 37038 ft | 453 kts | 206° |
| 2026-05-05 18:23 | 43.89944 | -5.98766 | 37040 ft | 453 kts | 206° |
| 2026-05-05 18:24 | 43.84187 | -6.02239 | 37044 ft | 453 kts | 206° |
| 2026-05-05 18:24 | 43.78399 | -6.05720 | 37050 ft | 453 kts | 206° |
| 2026-05-05 18:25 | 43.72614 | -6.09193 | 37054 ft | 453 kts | 206° |
| 2026-05-05 18:25 | 43.66867 | -6.12637 | 37058 ft | 452 kts | 206° |
| 2026-05-05 18:26 | 43.61083 | -6.16090 | 37059 ft | 452 kts | 206° |
| 2026-05-05 18:26 | 43.55307 | -6.19540 | 37055 ft | 452 kts | 206° |
| 2026-05-05 18:27 | 43.49527 | -6.22984 | 37054 ft | 452 kts | 206° |
| 2026-05-05 18:27 | 43.43782 | -6.26394 | 37057 ft | 452 kts | 206° |
| 2026-05-05 18:28 | 43.35113 | -6.31525 | 37056 ft | 451 kts | 206° |
| 2026-05-05 18:28 | 43.29339 | -6.34945 | 37062 ft | 451 kts | 207° |
| 2026-05-05 18:29 | 43.23576 | -6.38355 | 37065 ft | 451 kts | 207° |
| 2026-05-05 18:29 | 43.17854 | -6.41727 | 37062 ft | 450 kts | 207° |
| 2026-05-05 18:30 | 43.12094 | -6.45110 | 37059 ft | 450 kts | 207° |
| 2026-05-05 18:30 | 43.06330 | -6.48491 | 37052 ft | 450 kts | 207° |
| 2026-05-05 18:31 | 43.00571 | -6.51859 | 37052 ft | 450 kts | 207° |
| 2026-05-05 18:31 | 42.94832 | -6.55202 | 37047 ft | 449 kts | 207° |
| 2026-05-05 18:32 | 42.89128 | -6.58530 | 37048 ft | 449 kts | 207° |
| 2026-05-05 18:32 | 42.83390 | -6.61872 | 37046 ft | 449 kts | 207° |
| 2026-05-05 18:33 | 42.77655 | -6.65192 | 37047 ft | 448 kts | 207° |
| 2026-05-05 18:33 | 42.71951 | -6.68496 | 37048 ft | 448 kts | 207° |
| 2026-05-05 18:34 | 42.66223 | -6.71820 | 37048 ft | 447 kts | 207° |
| 2026-05-05 18:34 | 42.60497 | -6.75128 | 37047 ft | 447 kts | 207° |
| 2026-05-05 18:35 | 42.54771 | -6.78422 | 37049 ft | 446 kts | 207° |
| 2026-05-05 18:35 | 42.49051 | -6.81700 | 37050 ft | 446 kts | 207° |
| 2026-05-05 18:36 | 42.43376 | -6.84947 | 37047 ft | 445 kts | 207° |
| 2026-05-05 18:36 | 42.37668 | -6.88221 | 37048 ft | 445 kts | 207° |
| 2026-05-05 18:37 | 42.31957 | -6.91490 | 37049 ft | 444 kts | 207° |
| 2026-05-05 18:37 | 42.26285 | -6.94720 | 37045 ft | 444 kts | 207° |
| 2026-05-05 18:38 | 42.20600 | -6.97950 | 37046 ft | 443 kts | 207° |
| 2026-05-05 18:38 | 42.14912 | -7.01177 | 37048 ft | 443 kts | 207° |
| 2026-05-05 18:39 | 42.09279 | -7.04374 | 37048 ft | 442 kts | 207° |
| 2026-05-05 18:39 | 42.03636 | -7.07573 | 37044 ft | 442 kts | 207° |
| 2026-05-05 18:40 | 41.97950 | -7.10778 | 37039 ft | 441 kts | 207° |
| 2026-05-05 18:40 | 41.92290 | -7.13965 | 37040 ft | 441 kts | 207° |
| 2026-05-05 18:41 | 41.86644 | -7.17147 | 37037 ft | 440 kts | 207° |
| 2026-05-05 18:41 | 41.81019 | -7.20305 | 37036 ft | 440 kts | 207° |
| 2026-05-05 18:42 | 41.75380 | -7.23496 | 37035 ft | 439 kts | 208° |
| 2026-05-05 18:42 | 41.69839 | -7.26884 | 37040 ft | 437 kts | 210° |
| 2026-05-05 18:43 | 41.64327 | -7.30335 | 37039 ft | 437 kts | 210° |
| 2026-05-05 18:43 | 41.58823 | -7.33781 | 37031 ft | 436 kts | 210° |
| 2026-05-05 18:44 | 41.54255 | -7.36643 | 37040 ft | 436 kts | 210° |
| 2026-05-05 18:44 | 41.48783 | -7.40059 | 37024 ft | 435 kts | 210° |
| 2026-05-05 18:45 | 41.43325 | -7.43455 | 37038 ft | 435 kts | 210° |
| 2026-05-05 18:45 | 41.37837 | -7.46859 | 37031 ft | 434 kts | 210° |
| 2026-05-05 18:46 | 41.32364 | -7.50246 | 37040 ft | 433 kts | 210° |
| 2026-05-05 18:46 | 41.26924 | -7.53601 | 37042 ft | 433 kts | 210° |
| 2026-05-05 18:47 | 41.21591 | -7.56888 | 37037 ft | 432 kts | 210° |
| 2026-05-05 18:47 | 41.16102 | -7.60263 | 37044 ft | 432 kts | 210° |
| 2026-05-05 18:48 | 41.10640 | -7.63627 | 37043 ft | 431 kts | 210° |
| 2026-05-05 18:48 | 41.05228 | -7.66950 | 37050 ft | 431 kts | 210° |
| 2026-05-05 18:49 | 40.99795 | -7.70287 | 37049 ft | 430 kts | 210° |
| 2026-05-05 18:49 | 40.94353 | -7.73610 | 37052 ft | 429 kts | 209° |
| 2026-05-05 18:50 | 40.88950 | -7.76895 | 37053 ft | 429 kts | 209° |
| 2026-05-05 18:50 | 40.83531 | -7.80194 | 37051 ft | 428 kts | 210° |
| 2026-05-05 18:51 | 40.78107 | -7.83491 | 37055 ft | 428 kts | 210° |
| 2026-05-05 18:51 | 40.72728 | -7.86759 | 37049 ft | 427 kts | 210° |
| 2026-05-05 18:52 | 40.67318 | -7.90027 | 37050 ft | 427 kts | 209° |
| 2026-05-05 18:52 | 40.61909 | -7.93290 | 37052 ft | 427 kts | 210° |
| 2026-05-05 18:53 | 40.56515 | -7.96552 | 37055 ft | 426 kts | 210° |
| 2026-05-05 18:53 | 40.51158 | -7.99786 | 37052 ft | 426 kts | 210° |
| 2026-05-05 18:54 | 40.45776 | -8.03017 | 37046 ft | 427 kts | 210° |
| 2026-05-05 18:54 | 40.40393 | -8.06245 | 37042 ft | 427 kts | 210° |
| 2026-05-05 18:55 | 40.34979 | -8.09490 | 36735 ft | 429 kts | 210° |
| 2026-05-05 18:55 | 40.32244 | -8.11134 | 35795 ft | 435 kts | 210° |
| 2026-05-05 18:55 | 40.29493 | -8.12783 | 34698 ft | 433 kts | 210° |
| 2026-05-05 18:56 | 40.26748 | -8.14421 | 33514 ft | 431 kts | 210° |
| 2026-05-05 18:56 | 40.24048 | -8.16026 | 32410 ft | 426 kts | 210° |
| 2026-05-05 18:56 | 40.21361 | -8.17625 | 31376 ft | 420 kts | 210° |
| 2026-05-05 18:56 | 40.18759 | -8.19173 | 30413 ft | 415 kts | 210° |
| 2026-05-05 18:57 | 40.16159 | -8.20719 | 29323 ft | 410 kts | 210° |
| 2026-05-05 18:57 | 40.13623 | -8.22220 | 28272 ft | 405 kts | 210° |
| 2026-05-05 18:57 | 40.11048 | -8.23743 | 27233 ft | 400 kts | 210° |
| 2026-05-05 18:57 | 40.08532 | -8.25235 | 26335 ft | 397 kts | 210° |
| 2026-05-05 18:58 | 40.06069 | -8.26708 | 26044 ft | 396 kts | 210° |
| 2026-05-05 18:58 | 40.03554 | -8.28210 | 25725 ft | 393 kts | 210° |
| 2026-05-05 18:58 | 40.01115 | -8.29661 | 25231 ft | 391 kts | 209° |
| 2026-05-05 18:58 | 39.98536 | -8.30880 | 24824 ft | 393 kts | 202° |
| 2026-05-05 18:59 | 39.95911 | -8.31920 | 24563 ft | 395 kts | 202° |
| 2026-05-05 18:59 | 39.93277 | -8.32975 | 24271 ft | 395 kts | 202° |
| 2026-05-05 18:59 | 39.90648 | -8.34033 | 23982 ft | 394 kts | 202° |
| 2026-05-05 18:59 | 39.88063 | -8.35074 | 23686 ft | 392 kts | 202° |
| 2026-05-05 19:00 | 39.85455 | -8.36124 | 23359 ft | 391 kts | 202° |
| 2026-05-05 19:00 | 39.82859 | -8.37169 | 23061 ft | 390 kts | 202° |
| 2026-05-05 19:00 | 39.80265 | -8.38210 | 22766 ft | 388 kts | 202° |
| 2026-05-05 19:00 | 39.77695 | -8.39237 | 22529 ft | 380 kts | 202° |
| 2026-05-05 19:01 | 39.75207 | -8.40225 | 22387 ft | 368 kts | 202° |
| 2026-05-05 19:01 | 39.72811 | -8.41254 | 22249 ft | 353 kts | 208° |
| 2026-05-05 19:01 | 39.70682 | -8.42716 | 21981 ft | 341 kts | 217° |
| 2026-05-05 19:01 | 39.68677 | -8.44309 | 21818 ft | 337 kts | 217° |
| 2026-05-05 19:02 | 39.66704 | -8.45884 | 21585 ft | 336 kts | 217° |
| 2026-05-05 19:02 | 39.64706 | -8.47482 | 21365 ft | 336 kts | 217° |
| 2026-05-05 19:02 | 39.62712 | -8.49064 | 21141 ft | 335 kts | 217° |
| 2026-05-05 19:02 | 39.60721 | -8.50634 | 20913 ft | 334 kts | 217° |
| 2026-05-05 19:03 | 39.58733 | -8.52200 | 20684 ft | 333 kts | 216° |
| 2026-05-05 19:03 | 39.56754 | -8.53756 | 20455 ft | 332 kts | 217° |
| 2026-05-05 19:03 | 39.54776 | -8.55314 | 20231 ft | 331 kts | 216° |
| 2026-05-05 19:03 | 39.52891 | -8.56793 | 20016 ft | 331 kts | 216° |
| 2026-05-05 19:04 | 39.50877 | -8.58374 | 19788 ft | 330 kts | 216° |
| 2026-05-05 19:04 | 39.48931 | -8.59898 | 19570 ft | 329 kts | 216° |
| 2026-05-05 19:04 | 39.46969 | -8.61432 | 19342 ft | 329 kts | 216° |
| 2026-05-05 19:04 | 39.45008 | -8.62968 | 19119 ft | 328 kts | 216° |
| 2026-05-05 19:05 | 39.43059 | -8.64495 | 18885 ft | 327 kts | 216° |
| 2026-05-05 19:05 | 39.41143 | -8.65998 | 18676 ft | 326 kts | 216° |
| 2026-05-05 19:05 | 39.39198 | -8.67522 | 18453 ft | 325 kts | 216° |
| 2026-05-05 19:05 | 39.37263 | -8.69035 | 18213 ft | 325 kts | 216° |
| 2026-05-05 19:06 | 39.35328 | -8.70545 | 17994 ft | 324 kts | 216° |
| 2026-05-05 19:06 | 39.33399 | -8.72053 | 17766 ft | 323 kts | 216° |
| 2026-05-05 19:06 | 39.31492 | -8.73596 | 17542 ft | 320 kts | 221° |
| 2026-05-05 19:06 | 39.29809 | -8.75446 | 17332 ft | 317 kts | 226° |
| 2026-05-05 19:07 | 39.28178 | -8.77322 | 17120 ft | 316 kts | 226° |
| 2026-05-05 19:07 | 39.26532 | -8.79209 | 16906 ft | 316 kts | 226° |
| 2026-05-05 19:07 | 39.24890 | -8.81089 | 16691 ft | 315 kts | 226° |
| 2026-05-05 19:07 | 39.23255 | -8.82960 | 16479 ft | 314 kts | 226° |
| 2026-05-05 19:08 | 39.21644 | -8.84802 | 16271 ft | 313 kts | 226° |
| 2026-05-05 19:08 | 39.20002 | -8.86680 | 16051 ft | 313 kts | 226° |
| 2026-05-05 19:08 | 39.18539 | -8.88349 | 15861 ft | 312 kts | 226° |
| 2026-05-05 19:08 | 39.17048 | -8.90047 | 15665 ft | 312 kts | 225° |
| 2026-05-05 19:09 | 39.15427 | -8.91888 | 15456 ft | 311 kts | 226° |
| 2026-05-05 19:09 | 39.13957 | -8.93560 | 15268 ft | 310 kts | 226° |
| 2026-05-05 19:09 | 39.12394 | -8.95340 | 15064 ft | 309 kts | 226° |
| 2026-05-05 19:09 | 39.10803 | -8.97153 | 14856 ft | 309 kts | 225° |
| 2026-05-05 19:10 | 39.09217 | -8.98957 | 14647 ft | 308 kts | 225° |
| 2026-05-05 19:10 | 39.07620 | -9.00772 | 14442 ft | 308 kts | 226° |
| 2026-05-05 19:10 | 39.06017 | -9.02592 | 14230 ft | 307 kts | 225° |
| 2026-05-05 19:10 | 39.04424 | -9.04398 | 14019 ft | 306 kts | 225° |
| 2026-05-05 19:11 | 39.02884 | -9.06144 | 13851 ft | 300 kts | 225° |
| 2026-05-05 19:11 | 39.01337 | -9.07890 | 13719 ft | 291 kts | 225° |
| 2026-05-05 19:11 | 38.99759 | -9.09409 | 13514 ft | 289 kts | 213° |
| 2026-05-05 19:11 | 38.98036 | -9.10419 | 13404 ft | 287 kts | 207° |
| 2026-05-05 19:12 | 38.96192 | -9.11408 | 13214 ft | 286 kts | 206° |
| 2026-05-05 19:12 | 38.94349 | -9.12391 | 13022 ft | 286 kts | 206° |
| 2026-05-05 19:12 | 38.92550 | -9.13352 | 12836 ft | 285 kts | 206° |
| 2026-05-05 19:12 | 38.90717 | -9.14332 | 12633 ft | 285 kts | 206° |
| 2026-05-05 19:13 | 38.88891 | -9.15312 | 12437 ft | 284 kts | 206° |
| 2026-05-05 19:13 | 38.87067 | -9.16291 | 12247 ft | 283 kts | 206° |
| 2026-05-05 19:13 | 38.85277 | -9.17249 | 12057 ft | 283 kts | 207° |
| 2026-05-05 19:13 | 38.83465 | -9.18217 | 11865 ft | 282 kts | 206° |
| 2026-05-05 19:14 | 38.81663 | -9.19180 | 11671 ft | 281 kts | 206° |
| 2026-05-05 19:14 | 38.79879 | -9.20132 | 11450 ft | 280 kts | 206° |
| 2026-05-05 19:14 | 38.78100 | -9.21080 | 11157 ft | 278 kts | 206° |
| 2026-05-05 19:14 | 38.76311 | -9.22031 | 10856 ft | 278 kts | 206° |
| 2026-05-05 19:15 | 38.74532 | -9.22976 | 10574 ft | 276 kts | 206° |
| 2026-05-05 19:15 | 38.72868 | -9.24080 | 10282 ft | 272 kts | 219° |
| 2026-05-05 19:15 | 38.71477 | -9.25661 | 9993 ft | 266 kts | 233° |
| 2026-05-05 19:15 | 38.70359 | -9.27521 | 9682 ft | 264 kts | 236° |
| 2026-05-05 19:16 | 38.69267 | -9.29376 | 9361 ft | 263 kts | 237° |
| 2026-05-05 19:16 | 38.68185 | -9.31222 | 9068 ft | 262 kts | 239° |
| 2026-05-05 19:16 | 38.67329 | -9.33256 | 8756 ft | 258 kts | 250° |
| 2026-05-05 19:16 | 38.66586 | -9.35340 | 8434 ft | 258 kts | 249° |
| 2026-05-05 19:17 | 38.65842 | -9.37428 | 8118 ft | 258 kts | 249° |
| 2026-05-05 19:17 | 38.65106 | -9.39478 | 7821 ft | 257 kts | 249° |
| 2026-05-05 19:17 | 38.64379 | -9.41502 | 7537 ft | 256 kts | 249° |
| 2026-05-05 19:17 | 38.63638 | -9.43566 | 7234 ft | 256 kts | 249° |
| 2026-05-05 19:18 | 38.62902 | -9.45617 | 6946 ft | 255 kts | 249° |
| 2026-05-05 19:18 | 38.62181 | -9.47630 | 6654 ft | 255 kts | 249° |
| 2026-05-05 19:18 | 38.61442 | -9.49682 | 6327 ft | 255 kts | 249° |
| 2026-05-05 19:18 | 38.60703 | -9.51729 | 6094 ft | 250 kts | 249° |
| 2026-05-05 19:19 | 38.59776 | -9.53550 | 5963 ft | 247 kts | 226° |
| 2026-05-05 19:19 | 38.58342 | -9.54626 | 5831 ft | 242 kts | 197° |
| 2026-05-05 19:19 | 38.56716 | -9.54740 | 5697 ft | 235 kts | 170° |
| 2026-05-05 19:19 | 38.55124 | -9.54344 | 5429 ft | 233 kts | 168° |
| 2026-05-05 19:20 | 38.53571 | -9.53947 | 5142 ft | 231 kts | 168° |
| 2026-05-05 19:20 | 38.51997 | -9.53545 | 4869 ft | 231 kts | 168° |
| 2026-05-05 19:20 | 38.50437 | -9.53118 | 4568 ft | 230 kts | 162° |
| 2026-05-05 19:20 | 38.48985 | -9.52299 | 4275 ft | 228 kts | 144° |
| 2026-05-05 19:21 | 38.47873 | -9.50925 | 4046 ft | 217 kts | 117° |
| 2026-05-05 19:21 | 38.47377 | -9.49211 | 4004 ft | 199 kts | 89° |
| 2026-05-05 19:21 | 38.47490 | -9.47498 | 4010 ft | 190 kts | 65° |
| 2026-05-05 19:21 | 38.48119 | -9.46040 | 4024 ft | 196 kts | 45° |
| 2026-05-05 19:22 | 38.49007 | -9.44668 | 4014 ft | 201 kts | 46° |
| 2026-05-05 19:22 | 38.49891 | -9.43291 | 4012 ft | 201 kts | 46° |
| 2026-05-05 19:22 | 38.50783 | -9.41900 | 4019 ft | 202 kts | 46° |
| 2026-05-05 19:22 | 38.51661 | -9.40528 | 4004 ft | 201 kts | 46° |
| 2026-05-05 19:23 | 38.52562 | -9.39117 | 4013 ft | 209 kts | 47° |
| 2026-05-05 19:23 | 38.53489 | -9.37664 | 3992 ft | 212 kts | 46° |
| 2026-05-05 19:23 | 38.54425 | -9.36198 | 4009 ft | 212 kts | 46° |
| 2026-05-05 19:23 | 38.55346 | -9.34753 | 4012 ft | 212 kts | 46° |
| 2026-05-05 19:24 | 38.56248 | -9.33332 | 4006 ft | 203 kts | 46° |
| 2026-05-05 19:24 | 38.57141 | -9.31930 | 4012 ft | 201 kts | 46° |
| 2026-05-05 19:24 | 38.58027 | -9.30544 | 4008 ft | 201 kts | 46° |
| 2026-05-05 19:24 | 38.58914 | -9.29151 | 4009 ft | 202 kts | 46° |
| 2026-05-05 19:25 | 38.59797 | -9.27767 | 4009 ft | 202 kts | 46° |
| 2026-05-05 19:25 | 38.60685 | -9.26372 | 4010 ft | 202 kts | 46° |
| 2026-05-05 19:25 | 38.61572 | -9.24974 | 3958 ft | 200 kts | 46° |
| 2026-05-05 19:25 | 38.62424 | -9.23630 | 3800 ft | 194 kts | 46° |
| 2026-05-05 19:26 | 38.63252 | -9.22318 | 3675 ft | 186 kts | 46° |
| 2026-05-05 19:26 | 38.64105 | -9.21158 | 3534 ft | 175 kts | 30° |
| 2026-05-05 19:26 | 38.65195 | -9.20488 | 3182 ft | 178 kts | 19° |
| 2026-05-05 19:26 | 38.66369 | -9.19869 | 2930 ft | 178 kts | 19° |
| 2026-05-05 19:27 | 38.67495 | -9.19259 | 2975 ft | 174 kts | 23° |
| 2026-05-05 19:27 | 38.68372 | -9.18179 | 3061 ft | 180 kts | 53° |
| 2026-05-05 19:27 | 38.68924 | -9.16722 | 3309 ft | 190 kts | 73° |
| 2026-05-05 19:27 | 38.68888 | -9.15001 | 3573 ft | 200 kts | 95° |
| 2026-05-05 19:28 | 38.68588 | -9.13256 | 3837 ft | 201 kts | 98° |
| 2026-05-05 19:28 | 38.68018 | -9.11604 | 3971 ft | 213 kts | 128° |
| 2026-05-05 19:28 | 38.66695 | -9.10470 | 4020 ft | 245 kts | 162° |
| 2026-05-05 19:28 | 38.65573 | -9.10201 | 4018 ft | 250 kts | 175° |
| 2026-05-05 19:29 | 38.63825 | -9.10073 | 4011 ft | 252 kts | 179° |
| 2026-05-05 19:29 | 38.61517 | -9.09982 | 3710 ft | 249 kts | 179° |
| 2026-05-05 19:29 | 38.59784 | -9.09929 | 3407 ft | 250 kts | 179° |
| 2026-05-05 19:29 | 38.58063 | -9.10047 | 3117 ft | 248 kts | 194° |
| 2026-05-05 19:30 | 38.56399 | -9.10612 | 2996 ft | 247 kts | 198° |
| 2026-05-05 19:30 | 38.55282 | -9.11046 | 3007 ft | 248 kts | 199° |
| 2026-05-05 19:30 | 38.53636 | -9.11684 | 3002 ft | 249 kts | 199° |
| 2026-05-05 19:30 | 38.51986 | -9.12328 | 3011 ft | 247 kts | 199° |
| 2026-05-05 19:31 | 38.50365 | -9.12968 | 3013 ft | 248 kts | 199° |
| 2026-05-05 19:31 | 38.48717 | -9.13620 | 3007 ft | 248 kts | 202° |
| 2026-05-05 19:31 | 38.47293 | -9.14713 | 2997 ft | 230 kts | 229° |
| 2026-05-05 19:31 | 38.46418 | -9.16312 | 2998 ft | 216 kts | 253° |
| 2026-05-05 19:32 | 38.46120 | -9.18134 | 2994 ft | 206 kts | 277° |
| 2026-05-05 19:32 | 38.46368 | -9.19890 | 3002 ft | 197 kts | 297° |
| 2026-05-05 19:32 | 38.47046 | -9.21324 | 2999 ft | 190 kts | 316° |
| 2026-05-05 19:32 | 38.48071 | -9.22368 | 3004 ft | 187 kts | 334° |
| 2026-05-05 19:33 | 38.49297 | -9.22891 | 3009 ft | 186 kts | 353° |
| 2026-05-05 19:33 | 38.50592 | -9.22876 | 3001 ft | 187 kts | 5° |
| 2026-05-05 19:33 | 38.51895 | -9.22701 | 3013 ft | 189 kts | 5° |
| 2026-05-05 19:33 | 38.53208 | -9.22529 | 3016 ft | 190 kts | 4° |
| 2026-05-05 19:34 | 38.54525 | -9.22358 | 3014 ft | 191 kts | 4° |
| 2026-05-05 19:34 | 38.55847 | -9.22188 | 3014 ft | 191 kts | 4° |
| 2026-05-05 19:34 | 38.57167 | -9.22018 | 3010 ft | 190 kts | 4° |
| 2026-05-05 19:35 | 38.59807 | -9.21678 | 3014 ft | 192 kts | 4° |
| 2026-05-05 19:35 | 38.61071 | -9.21513 | 3007 ft | 178 kts | 4° |
| 2026-05-05 19:35 | 38.62273 | -9.21355 | 3010 ft | 172 kts | 4° |
| 2026-05-05 19:35 | 38.63427 | -9.21203 | 3007 ft | 170 kts | 7° |
| 2026-05-05 19:36 | 38.64573 | -9.20777 | 2898 ft | 173 kts | 18° |
| 2026-05-05 19:36 | 38.65691 | -9.20217 | 2733 ft | 172 kts | 18° |
| 2026-05-05 19:36 | 38.66791 | -9.19642 | 2479 ft | 168 kts | 18° |
| 2026-05-05 19:36 | 38.67851 | -9.19080 | 2261 ft | 161 kts | 18° |
| 2026-05-05 19:37 | 38.68852 | -9.18546 | 2046 ft | 148 kts | 19° |
| 2026-05-05 19:37 | 38.69746 | -9.18069 | 1868 ft | 133 kts | 18° |
| 2026-05-05 19:37 | 38.70594 | -9.17618 | 1688 ft | 130 kts | 18° |
| 2026-05-05 19:37 | 38.71419 | -9.17180 | 1496 ft | 131 kts | 19° |
| 2026-05-05 19:38 | 38.72264 | -9.16727 | 1330 ft | 131 kts | 19° |
| 2026-05-05 19:38 | 38.73103 | -9.16279 | 1157 ft | 131 kts | 17° |
| 2026-05-05 19:38 | 38.73942 | -9.15821 | 932 ft | 132 kts | 20° |
| 2026-05-05 19:38 | 38.74792 | -9.15384 | 759 ft | 132 kts | 17° |
| 2026-05-05 19:39 | 38.75632 | -9.14924 | 595 ft | 130 kts | 16° |
| 2026-05-05 19:39 | 38.76489 | -9.14471 | 405 ft | 134 kts | 16° |
| 2026-05-05 19:39 | 38.77255 | -9.14069 | 364 ft | 96 kts | 24° |
| 2026-05-05 19:39 | 38.77591 | -9.13886 | 364 ft | 9 kts | 23° |
| 2026-05-05 19:40 | 38.77657 | -9.13848 | 366 ft | 34 kts | 22° |
| 2026-05-05 19:40 | 38.77973 | -9.13674 | 364 ft | 48 kts | 24° |
| 2026-05-05 19:40 | 38.78257 | -9.13504 | 365 ft | 41 kts | 36° |
| 2026-05-05 19:40 | 38.78378 | -9.13316 | 362 ft | 15 kts | 93° |
| 2026-05-05 19:41 | 38.78321 | -9.13273 | 360 ft | 12 kts | 191° |
| 2026-05-05 19:41 | 38.78236 | -9.13296 | 358 ft | 13 kts | 154° |
| 2026-05-05 19:41 | 38.78177 | -9.13301 | 356 ft | 3 kts | 219° |
| 2026-05-05 19:41 | 38.78150 | -9.13333 | 356 ft | 18 kts | 224° |
| 2026-05-05 19:42 | 38.78012 | -9.13410 | 358 ft | 24 kts | 172° |
| 2026-05-05 19:42 | 38.77821 | -9.13367 | 347 ft | 30 kts | 169° |
| 2026-05-05 19:42 | 38.77647 | -9.13319 | 336 ft | 27 kts | 175° |
| 2026-05-05 19:42 | 38.77474 | -9.13292 | 336 ft | 24 kts | 171° |
| 2026-05-05 19:43 | 38.77306 | -9.13253 | 338 ft | 25 kts | 168° |
| 2026-05-05 19:43 | 38.77129 | -9.13206 | 337 ft | 26 kts | 169° |
| 2026-05-05 19:43 | 38.76962 | -9.13161 | 339 ft | 17 kts | 168° |
| 2026-05-05 19:43 | 38.76883 | -9.13122 | 336 ft | 8 kts | 103° |
| 2026-05-05 19:44 | 38.76887 | -9.13077 | 337 ft | 5 kts | 77° |
| 2026-05-05 19:44 | 38.76891 | -9.13052 | 334 ft | 0 kts | 78° |